sensor_id;sensor_type;location;lat;lon;timestamp;temperature;humidity
19385;DHT22;9828;54.122;17.974;2022-12-07T00:01:53;2.50;99.90
19385;DHT22;9828;54.122;17.974;2022-12-07T00:07:15;2.60;99.90
19385;DHT22;9828;54.122;17.974;2022-12-07T00:12:36;2.50;99.90
19385;DHT22;9828;54.122;17.974;2022-12-07T00:17:57;2.50;99.90
19385;DHT22;9828;54.122;17.974;2022-12-07T00:23:18;2.50;99.90
19385;DHT22;9828;54.122;17.974;2022-12-07T00:28:40;2.50;99.90
19385;DHT22;9828;54.122;17.974;2022-12-07T00:34:01;2.50;99.90
19385;DHT22;9828;54.122;17.974;2022-12-07T00:39:22;2.50;99.90
19385;DHT22;9828;54.122;17.974;2022-12-07T00:44:44;2.50;99.90
19385;DHT22;9828;54.122;17.974;2022-12-07T00:50:05;2.50;99.90
19385;DHT22;9828;54.122;17.974;2022-12-07T00:55:33;2.50;99.90
19385;DHT22;9828;54.122;17.974;2022-12-07T01:01:00;2.50;99.90
19385;DHT22;9828;54.122;17.974;2022-12-07T01:06:23;2.50;99.90
19385;DHT22;9828;54.122;17.974;2022-12-07T01:11:44;2.50;99.90
19385;DHT22;9828;54.122;17.974;2022-12-07T01:17:06;2.50;99.90
19385;DHT22;9828;54.122;17.974;2022-12-07T01:22:27;2.50;99.90
19385;DHT22;9828;54.122;17.974;2022-12-07T01:27:48;2.50;99.90
19385;DHT22;9828;54.122;17.974;2022-12-07T01:33:10;2.50;99.90
19385;DHT22;9828;54.122;17.974;2022-12-07T01:38:32;2.60;99.90
19385;DHT22;9828;54.122;17.974;2022-12-07T01:44:22;2.50;99.90
19385;DHT22;9828;54.122;17.974;2022-12-07T01:49:46;2.50;99.90
19385;DHT22;9828;54.122;17.974;2022-12-07T01:55:12;2.50;99.90
19385;DHT22;9828;54.122;17.974;2022-12-07T02:00:34;2.50;99.90
19385;DHT22;9828;54.122;17.974;2022-12-07T02:05:55;2.50;99.90
19385;DHT22;9828;54.122;17.974;2022-12-07T02:11:17;2.60;99.90
19385;DHT22;9828;54.122;17.974;2022-12-07T02:16:49;2.60;99.90
19385;DHT22;9828;54.122;17.974;2022-12-07T02:27:56;2.60;99.90
19385;DHT22;9828;54.122;17.974;2022-12-07T02:33:44;2.70;99.90
19385;DHT22;9828;54.122;17.974;2022-12-07T02:39:17;2.60;99.90
19385;DHT22;9828;54.122;17.974;2022-12-07T02:44:40;2.70;99.90
19385;DHT22;9828;54.122;17.974;2022-12-07T02:50:04;2.70;99.90
19385;DHT22;9828;54.122;17.974;2022-12-07T02:55:31;2.80;99.90
19385;DHT22;9828;54.122;17.974;2022-12-07T03:01:09;2.70;99.90
19385;DHT22;9828;54.122;17.974;2022-12-07T03:06:38;2.70;99.90
19385;DHT22;9828;54.122;17.974;2022-12-07T03:12:14;2.80;99.90
19385;DHT22;9828;54.122;17.974;2022-12-07T03:17:39;2.80;99.90
19385;DHT22;9828;54.122;17.974;2022-12-07T03:23:00;2.90;99.90
19385;DHT22;9828;54.122;17.974;2022-12-07T03:28:30;2.90;99.90
19385;DHT22;9828;54.122;17.974;2022-12-07T03:39:46;2.90;99.90
19385;DHT22;9828;54.122;17.974;2022-12-07T03:45:10;2.90;99.90
19385;DHT22;9828;54.122;17.974;2022-12-07T03:50:57;3.00;99.90
19385;DHT22;9828;54.122;17.974;2022-12-07T03:56:22;2.90;99.90
19385;DHT22;9828;54.122;17.974;2022-12-07T04:01:44;3.00;99.90
19385;DHT22;9828;54.122;17.974;2022-12-07T04:07:06;3.00;99.90
19385;DHT22;9828;54.122;17.974;2022-12-07T04:12:27;2.90;99.90
19385;DHT22;9828;54.122;17.974;2022-12-07T04:17:49;3.00;99.90
19385;DHT22;9828;54.122;17.974;2022-12-07T04:23:10;2.90;99.90
19385;DHT22;9828;54.122;17.974;2022-12-07T04:28:32;3.00;99.90
19385;DHT22;9828;54.122;17.974;2022-12-07T04:33:53;3.00;99.90
19385;DHT22;9828;54.122;17.974;2022-12-07T04:39:26;3.00;99.90
19385;DHT22;9828;54.122;17.974;2022-12-07T04:44:47;3.00;99.90
19385;DHT22;9828;54.122;17.974;2022-12-07T04:50:10;2.90;99.90
19385;DHT22;9828;54.122;17.974;2022-12-07T04:55:31;2.90;99.90
19385;DHT22;9828;54.122;17.974;2022-12-07T05:00:56;2.90;99.90
19385;DHT22;9828;54.122;17.974;2022-12-07T05:06:17;2.80;99.90
19385;DHT22;9828;54.122;17.974;2022-12-07T05:11:38;2.90;99.90
19385;DHT22;9828;54.122;17.974;2022-12-07T05:17:00;2.90;99.90
19385;DHT22;9828;54.122;17.974;2022-12-07T05:22:21;2.90;99.90
19385;DHT22;9828;54.122;17.974;2022-12-07T05:27:42;2.90;99.90
19385;DHT22;9828;54.122;17.974;2022-12-07T05:33:03;2.80;99.90
19385;DHT22;9828;54.122;17.974;2022-12-07T05:38:32;2.80;99.90
19385;DHT22;9828;54.122;17.974;2022-12-07T05:43:53;2.90;99.90
19385;DHT22;9828;54.122;17.974;2022-12-07T05:49:14;2.80;99.90
19385;DHT22;9828;54.122;17.974;2022-12-07T05:54:35;2.80;99.90
19385;DHT22;9828;54.122;17.974;2022-12-07T05:59:57;2.80;99.90
19385;DHT22;9828;54.122;17.974;2022-12-07T06:05:18;2.70;99.90
19385;DHT22;9828;54.122;17.974;2022-12-07T06:10:40;2.70;99.90
19385;DHT22;9828;54.122;17.974;2022-12-07T06:16:02;2.70;99.90
19385;DHT22;9828;54.122;17.974;2022-12-07T06:21:23;2.70;99.90
19385;DHT22;9828;54.122;17.974;2022-12-07T06:26:47;2.70;99.90
19385;DHT22;9828;54.122;17.974;2022-12-07T06:32:08;2.70;99.90
19385;DHT22;9828;54.122;17.974;2022-12-07T06:37:30;2.70;99.90
19385;DHT22;9828;54.122;17.974;2022-12-07T06:42:51;2.80;99.90
19385;DHT22;9828;54.122;17.974;2022-12-07T06:48:13;2.80;99.90
19385;DHT22;9828;54.122;17.974;2022-12-07T06:53:35;3.00;99.90
19385;DHT22;9828;54.122;17.974;2022-12-07T06:58:56;3.00;99.90
19385;DHT22;9828;54.122;17.974;2022-12-07T07:04:17;2.90;99.90
19385;DHT22;9828;54.122;17.974;2022-12-07T07:09:39;2.80;99.90
19385;DHT22;9828;54.122;17.974;2022-12-07T07:15:00;2.80;99.90
19385;DHT22;9828;54.122;17.974;2022-12-07T07:20:22;2.80;99.90
19385;DHT22;9828;54.122;17.974;2022-12-07T07:25:44;2.80;99.90
19385;DHT22;9828;54.122;17.974;2022-12-07T07:31:06;2.80;99.90
19385;DHT22;9828;54.122;17.974;2022-12-07T07:36:27;2.70;99.90
19385;DHT22;9828;54.122;17.974;2022-12-07T07:41:48;2.70;99.90
19385;DHT22;9828;54.122;17.974;2022-12-07T07:47:17;2.60;99.90
19385;DHT22;9828;54.122;17.974;2022-12-07T07:52:39;2.60;99.90
19385;DHT22;9828;54.122;17.974;2022-12-07T07:58:00;2.60;99.90
19385;DHT22;9828;54.122;17.974;2022-12-07T08:03:22;2.60;99.90
19385;DHT22;9828;54.122;17.974;2022-12-07T08:08:43;2.50;99.90
19385;DHT22;9828;54.122;17.974;2022-12-07T08:14:04;2.50;99.90
19385;DHT22;9828;54.122;17.974;2022-12-07T08:19:26;2.50;99.90
19385;DHT22;9828;54.122;17.974;2022-12-07T08:24:47;2.60;99.90
19385;DHT22;9828;54.122;17.974;2022-12-07T08:30:09;2.60;99.90
19385;DHT22;9828;54.122;17.974;2022-12-07T08:35:33;2.70;99.90
19385;DHT22;9828;54.122;17.974;2022-12-07T08:40:56;2.70;99.90
19385;DHT22;9828;54.122;17.974;2022-12-07T08:46:25;2.70;99.90
19385;DHT22;9828;54.122;17.974;2022-12-07T08:51:47;2.70;99.90
19385;DHT22;9828;54.122;17.974;2022-12-07T08:57:10;2.60;99.90
19385;DHT22;9828;54.122;17.974;2022-12-07T09:02:32;2.70;99.90
19385;DHT22;9828;54.122;17.974;2022-12-07T09:07:56;2.60;99.90
19385;DHT22;9828;54.122;17.974;2022-12-07T09:13:18;2.60;99.90
19385;DHT22;9828;54.122;17.974;2022-12-07T09:18:39;2.60;99.90
19385;DHT22;9828;54.122;17.974;2022-12-07T09:24:01;2.60;99.90
19385;DHT22;9828;54.122;17.974;2022-12-07T09:29:22;2.50;99.90
19385;DHT22;9828;54.122;17.974;2022-12-07T09:34:44;2.60;99.90
19385;DHT22;9828;54.122;17.974;2022-12-07T09:40:06;2.50;99.90
19385;DHT22;9828;54.122;17.974;2022-12-07T09:45:35;2.40;99.90
19385;DHT22;9828;54.122;17.974;2022-12-07T09:50:59;2.40;99.90
19385;DHT22;9828;54.122;17.974;2022-12-07T09:56:22;2.30;99.90
19385;DHT22;9828;54.122;17.974;2022-12-07T10:01:45;2.40;99.90
19385;DHT22;9828;54.122;17.974;2022-12-07T10:07:07;2.40;99.90
19385;DHT22;9828;54.122;17.974;2022-12-07T10:12:29;2.50;99.90
19385;DHT22;9828;54.122;17.974;2022-12-07T10:17:52;2.50;99.90
19385;DHT22;9828;54.122;17.974;2022-12-07T10:23:15;2.40;99.90
19385;DHT22;9828;54.122;17.974;2022-12-07T10:28:37;2.40;99.90
19385;DHT22;9828;54.122;17.974;2022-12-07T10:34:01;2.40;99.90
19385;DHT22;9828;54.122;17.974;2022-12-07T10:39:23;2.30;99.90
19385;DHT22;9828;54.122;17.974;2022-12-07T10:44:45;2.40;99.90
19385;DHT22;9828;54.122;17.974;2022-12-07T11:13:01;2.50;1.00
19385;DHT22;9828;54.122;17.974;2022-12-07T11:24:14;2.50;1.00
19385;DHT22;9828;54.122;17.974;2022-12-07T11:41:00;2.70;1.00
19385;DHT22;9828;54.122;17.974;2022-12-07T11:46:50;2.60;1.00
19385;DHT22;9828;54.122;17.974;2022-12-07T11:52:24;2.60;1.00
19385;DHT22;9828;54.122;17.974;2022-12-07T11:58:18;2.60;1.00
19385;DHT22;9828;54.122;17.974;2022-12-07T12:16:16;2.60;1.00
19385;DHT22;9828;54.122;17.974;2022-12-07T12:22:00;2.60;1.00
19385;DHT22;9828;54.122;17.974;2022-12-07T12:27:27;2.60;1.00
19385;DHT22;9828;54.122;17.974;2022-12-07T12:32:51;2.60;1.00
19385;DHT22;9828;54.122;17.974;2022-12-07T12:38:30;2.60;1.00
19385;DHT22;9828;54.122;17.974;2022-12-07T12:43:52;2.60;1.00
19385;DHT22;9828;54.122;17.974;2022-12-07T13:00:28;2.60;1.00
19385;DHT22;9828;54.122;17.974;2022-12-07T13:11:45;2.50;1.00
19385;DHT22;9828;54.122;17.974;2022-12-07T13:17:12;2.50;1.00
19385;DHT22;9828;54.122;17.974;2022-12-07T13:22:53;2.50;1.00
19385;DHT22;9828;54.122;17.974;2022-12-07T13:28:20;2.50;1.00
19385;DHT22;9828;54.122;17.974;2022-12-07T13:33:44;2.40;1.00
19385;DHT22;9828;54.122;17.974;2022-12-07T13:39:21;2.40;1.00
19385;DHT22;9828;54.122;17.974;2022-12-07T13:44:43;2.30;1.00
19385;DHT22;9828;54.122;17.974;2022-12-07T13:50:26;2.40;1.00
19385;DHT22;9828;54.122;17.974;2022-12-07T13:55:48;2.30;1.00
19385;DHT22;9828;54.122;17.974;2022-12-07T14:01:18;2.30;1.00
19385;DHT22;9828;54.122;17.974;2022-12-07T14:06:56;2.30;1.00
19385;DHT22;9828;54.122;17.974;2022-12-07T14:12:19;2.30;1.00
19385;DHT22;9828;54.122;17.974;2022-12-07T14:18:25;2.30;1.00
19385;DHT22;9828;54.122;17.974;2022-12-07T14:24:24;2.30;1.00
19385;DHT22;9828;54.122;17.974;2022-12-07T14:29:47;2.30;1.00
19385;DHT22;9828;54.122;17.974;2022-12-07T14:35:10;2.20;1.00
19385;DHT22;9828;54.122;17.974;2022-12-07T14:40:32;2.20;1.00
19385;DHT22;9828;54.122;17.974;2022-12-07T14:45:53;2.30;1.00
19385;DHT22;9828;54.122;17.974;2022-12-07T14:51:15;2.30;1.00
19385;DHT22;9828;54.122;17.974;2022-12-07T14:56:56;2.30;1.00
19385;DHT22;9828;54.122;17.974;2022-12-07T15:02:17;2.30;1.00
19385;DHT22;9828;54.122;17.974;2022-12-07T15:07:39;2.30;1.00
19385;DHT22;9828;54.122;17.974;2022-12-07T15:13:02;2.20;1.00
19385;DHT22;9828;54.122;17.974;2022-12-07T15:18:42;2.30;1.00
19385;DHT22;9828;54.122;17.974;2022-12-07T15:24:10;2.30;1.00
19385;DHT22;9828;54.122;17.974;2022-12-07T15:29:32;2.30;1.00
19385;DHT22;9828;54.122;17.974;2022-12-07T15:34:53;2.40;1.00
19385;DHT22;9828;54.122;17.974;2022-12-07T15:40:15;2.30;1.00
19385;DHT22;9828;54.122;17.974;2022-12-07T15:45:36;2.30;1.00
19385;DHT22;9828;54.122;17.974;2022-12-07T15:51:06;2.30;1.00
19385;DHT22;9828;54.122;17.974;2022-12-07T15:56:27;2.10;1.00
19385;DHT22;9828;54.122;17.974;2022-12-07T16:01:49;2.20;1.00
19385;DHT22;9828;54.122;17.974;2022-12-07T16:07:10;2.20;1.00
19385;DHT22;9828;54.122;17.974;2022-12-07T16:12:32;2.20;1.00
19385;DHT22;9828;54.122;17.974;2022-12-07T16:17:54;2.20;1.00
19385;DHT22;9828;54.122;17.974;2022-12-07T16:23:16;2.00;1.00
19385;DHT22;9828;54.122;17.974;2022-12-07T16:28:38;2.00;1.00
19385;DHT22;9828;54.122;17.974;2022-12-07T16:33:59;2.00;2.40
19385;DHT22;9828;54.122;17.974;2022-12-07T16:39:20;1.80;42.70
19385;DHT22;9828;54.122;17.974;2022-12-07T16:44:42;1.70;41.30
19385;DHT22;9828;54.122;17.974;2022-12-07T16:50:04;1.70;36.50
19385;DHT22;9828;54.122;17.974;2022-12-07T16:55:25;1.70;99.90
19385;DHT22;9828;54.122;17.974;2022-12-07T17:00:47;1.70;55.50
19385;DHT22;9828;54.122;17.974;2022-12-07T17:06:17;1.70;62.50
19385;DHT22;9828;54.122;17.974;2022-12-07T17:11:39;1.70;55.60
19385;DHT22;9828;54.122;17.974;2022-12-07T17:17:00;1.70;63.60
19385;DHT22;9828;54.122;17.974;2022-12-07T17:22:21;1.70;43.90
19385;DHT22;9828;54.122;17.974;2022-12-07T17:27:44;1.70;17.00
19385;DHT22;9828;54.122;17.974;2022-12-07T17:33:06;1.60;44.30
19385;DHT22;9828;54.122;17.974;2022-12-07T17:38:28;1.70;57.90
19385;DHT22;9828;54.122;17.974;2022-12-07T17:43:49;1.70;27.10
19385;DHT22;9828;54.122;17.974;2022-12-07T17:49:11;1.70;42.20
19385;DHT22;9828;54.122;17.974;2022-12-07T17:54:32;1.70;29.30
19385;DHT22;9828;54.122;17.974;2022-12-07T17:59:54;1.70;10.30
19385;DHT22;9828;54.122;17.974;2022-12-07T18:05:16;1.70;39.20
19385;DHT22;9828;54.122;17.974;2022-12-07T18:10:37;1.70;16.30
19385;DHT22;9828;54.122;17.974;2022-12-07T18:15:59;1.70;2.50
19385;DHT22;9828;54.122;17.974;2022-12-07T18:21:23;1.70;1.00
19385;DHT22;9828;54.122;17.974;2022-12-07T18:26:45;1.70;7.70
19385;DHT22;9828;54.122;17.974;2022-12-07T18:32:08;1.70;1.00
19385;DHT22;9828;54.122;17.974;2022-12-07T18:37:29;1.70;1.00
19385;DHT22;9828;54.122;17.974;2022-12-07T18:42:51;1.60;11.20
19385;DHT22;9828;54.122;17.974;2022-12-07T18:48:17;1.60;23.60
19385;DHT22;9828;54.122;17.974;2022-12-07T18:53:39;1.50;53.40
19385;DHT22;9828;54.122;17.974;2022-12-07T18:59:01;1.50;64.20
19385;DHT22;9828;54.122;17.974;2022-12-07T19:04:42;1.50;55.10
19385;DHT22;9828;54.122;17.974;2022-12-07T19:10:07;1.60;26.30
19385;DHT22;9828;54.122;17.974;2022-12-07T19:15:28;1.60;1.00
19385;DHT22;9828;54.122;17.974;2022-12-07T19:20:49;1.50;29.30
19385;DHT22;9828;54.122;17.974;2022-12-07T19:26:10;1.50;92.90
19385;DHT22;9828;54.122;17.974;2022-12-07T19:31:32;1.50;66.90
19385;DHT22;9828;54.122;17.974;2022-12-07T19:36:53;1.50;30.40
19385;DHT22;9828;54.122;17.974;2022-12-07T19:42:15;1.50;7.60
19385;DHT22;9828;54.122;17.974;2022-12-07T19:47:36;1.60;1.00
19385;DHT22;9828;54.122;17.974;2022-12-07T19:52:57;1.50;1.00
19385;DHT22;9828;54.122;17.974;2022-12-07T19:58:18;1.50;1.00
19385;DHT22;9828;54.122;17.974;2022-12-07T20:03:39;1.50;1.00
19385;DHT22;9828;54.122;17.974;2022-12-07T20:09:01;1.40;1.00
19385;DHT22;9828;54.122;17.974;2022-12-07T20:14:23;1.30;1.00
19385;DHT22;9828;54.122;17.974;2022-12-07T20:19:44;1.30;1.00
19385;DHT22;9828;54.122;17.974;2022-12-07T20:32:32;1.40;1.00
19385;DHT22;9828;54.122;17.974;2022-12-07T20:37:54;1.40;1.00
19385;DHT22;9828;54.122;17.974;2022-12-07T20:43:15;1.40;1.00
19385;DHT22;9828;54.122;17.974;2022-12-07T20:48:36;1.40;1.00
19385;DHT22;9828;54.122;17.974;2022-12-07T20:53:57;1.40;1.00
19385;DHT22;9828;54.122;17.974;2022-12-07T20:59:18;1.40;1.00
19385;DHT22;9828;54.122;17.974;2022-12-07T21:04:40;1.30;1.00
19385;DHT22;9828;54.122;17.974;2022-12-07T21:10:04;1.40;1.00
19385;DHT22;9828;54.122;17.974;2022-12-07T21:15:25;1.40;1.00
19385;DHT22;9828;54.122;17.974;2022-12-07T21:20:46;1.30;1.00
19385;DHT22;9828;54.122;17.974;2022-12-07T21:26:09;1.30;1.00
19385;DHT22;9828;54.122;17.974;2022-12-07T21:31:31;1.20;1.00
19385;DHT22;9828;54.122;17.974;2022-12-07T21:36:52;1.20;1.00
19385;DHT22;9828;54.122;17.974;2022-12-07T21:42:14;1.30;1.00
19385;DHT22;9828;54.122;17.974;2022-12-07T21:47:35;1.30;1.00
19385;DHT22;9828;54.122;17.974;2022-12-07T21:52:57;1.30;1.00
19385;DHT22;9828;54.122;17.974;2022-12-07T21:58:18;1.40;1.00
19385;DHT22;9828;54.122;17.974;2022-12-07T22:03:39;1.30;1.00
19385;DHT22;9828;54.122;17.974;2022-12-07T22:09:01;1.30;1.00
19385;DHT22;9828;54.122;17.974;2022-12-07T22:14:23;1.20;1.00
19385;DHT22;9828;54.122;17.974;2022-12-07T22:20:03;1.20;1.00
19385;DHT22;9828;54.122;17.974;2022-12-07T22:25:24;1.20;1.00
19385;DHT22;9828;54.122;17.974;2022-12-07T22:30:45;1.20;1.00
19385;DHT22;9828;54.122;17.974;2022-12-07T22:36:08;1.20;1.00
19385;DHT22;9828;54.122;17.974;2022-12-07T22:41:31;1.20;1.00
19385;DHT22;9828;54.122;17.974;2022-12-07T22:46:52;1.20;1.00
19385;DHT22;9828;54.122;17.974;2022-12-07T22:52:13;1.20;1.00
19385;DHT22;9828;54.122;17.974;2022-12-07T22:57:34;1.20;1.00
19385;DHT22;9828;54.122;17.974;2022-12-07T23:02:56;1.20;1.00
19385;DHT22;9828;54.122;17.974;2022-12-07T23:08:17;1.30;1.00
19385;DHT22;9828;54.122;17.974;2022-12-07T23:13:39;1.30;1.00
19385;DHT22;9828;54.122;17.974;2022-12-07T23:19:01;1.30;1.00
19385;DHT22;9828;54.122;17.974;2022-12-07T23:24:22;1.20;1.00
19385;DHT22;9828;54.122;17.974;2022-12-07T23:29:43;1.20;1.00
19385;DHT22;9828;54.122;17.974;2022-12-07T23:35:05;1.20;1.00
19385;DHT22;9828;54.122;17.974;2022-12-07T23:40:26;1.20;1.00
19385;DHT22;9828;54.122;17.974;2022-12-07T23:45:47;1.20;1.00
19385;DHT22;9828;54.122;17.974;2022-12-07T23:51:12;1.20;1.00
19385;DHT22;9828;54.122;17.974;2022-12-07T23:56:34;1.20;1.00
